Time;durP1;ratioP1;P1;durP2;ratioP2;P2;SDS_P1;SDS_P2;PMS_P1;PMS_P2;Temp;Humidity;BMP_temperature;BMP_pressure;BME280_temperature;BME280_humidity;BME280_pressure;Samples;Min_cycle;Max_cycle;Signal;HPM_P1;HPM_P2
2023/07/26 00:00:21;;;;;;;0.40;0.40;;;;;;;11.81;100.00;100583.47;5022026;28;20030;-53
2023/07/26 00:02:46;;;;;;;1.52;1.13;;;;;;;11.68;100.00;100586.84;5015943;28;20096;-57
2023/07/26 00:05:11;;;;;;;0.98;0.43;;;;;;;11.60;100.00;100586.19;5021873;28;20033;-57
2023/07/26 00:07:37;;;;;;;1.73;0.75;;;;;;;11.52;100.00;100601.28;5019850;28;20048;-57
2023/07/26 00:10:02;;;;;;;0.88;0.40;;;;;;;11.43;100.00;100594.44;5021799;28;20033;-57
2023/07/26 00:12:27;;;;;;;0.45;0.40;;;;;;;11.38;100.00;100594.22;5021331;28;20040;-58
2023/07/26 00:14:53;;;;;;;1.60;0.73;;;;;;;11.26;100.00;100606.38;5022958;28;20075;-56
2023/07/26 00:17:19;;;;;;;2.15;0.60;;;;;;;11.27;100.00;100600.88;5021221;28;20526;-56
2023/07/26 00:19:44;;;;;;;1.77;0.40;;;;;;;11.25;100.00;100594.94;5017543;28;20076;-57
2023/07/26 00:22:09;;;;;;;1.13;0.52;;;;;;;11.19;100.00;100597.56;5022201;28;20041;-56
2023/07/26 00:24:35;;;;;;;1.83;0.30;;;;;;;11.31;100.00;100603.97;5021873;28;20041;-56
2023/07/26 00:27:00;;;;;;;2.80;0.90;;;;;;;11.30;100.00;100597.81;5019190;28;20494;-56
2023/07/26 00:29:25;;;;;;;3.25;0.80;;;;;;;11.29;100.00;100600.69;5022727;28;20040;-57
2023/07/26 00:31:51;;;;;;;2.67;0.70;;;;;;;11.31;100.00;100598.69;5021713;28;20057;-56
2023/07/26 00:34:16;;;;;;;2.25;0.40;;;;;;;11.22;100.00;100595.31;5020844;28;20061;-59
2023/07/26 00:36:41;;;;;;;1.52;0.65;;;;;;;11.06;100.00;100604.38;5022974;28;20033;-56
2023/07/26 00:39:07;;;;;;;2.05;0.43;;;;;;;11.01;100.00;100612.09;5021109;28;20032;-56
2023/07/26 00:41:32;;;;;;;1.95;0.82;;;;;;;10.99;100.00;100605.34;5014972;28;20036;-56
2023/07/26 00:43:57;;;;;;;2.83;0.65;;;;;;;10.99;100.00;100611.47;5020893;28;20040;-54
2023/07/26 00:46:23;;;;;;;3.17;0.50;;;;;;;11.02;100.00;100604.94;5019501;28;20029;-56
2023/07/26 00:48:48;;;;;;;0.45;0.40;;;;;;;11.04;100.00;100603.75;5014733;28;20390;-55
2023/07/26 00:51:14;;;;;;;1.67;0.65;;;;;;;11.09;100.00;100601.34;5020128;28;20033;-53
2023/07/26 00:53:40;;;;;;;0.63;0.63;;;;;;;11.09;100.00;100611.13;5020417;28;20033;-55
2023/07/26 00:56:06;;;;;;;1.33;0.68;;;;;;;11.01;100.00;100617.41;5020699;28;20024;-54
2023/07/26 00:58:32;;;;;;;0.70;0.60;;;;;;;11.02;100.00;100615.56;5023979;28;20029;-54
2023/07/26 01:00:59;;;;;;;2.35;1.05;;;;;;;11.02;100.00;100610.25;5021739;28;20052;-55
2023/07/26 01:03:25;;;;;;;0.65;0.45;;;;;;;11.00;100.00;100607.81;5021912;28;20112;-53
2023/07/26 01:06:12;;;;;;;6.07;0.77;;;;;;;11.00;100.00;100605.16;5017328;28;20843;-56
2023/07/26 01:08:46;;;;;;;1.20;0.75;;;;;;;10.94;100.00;100603.25;5011245;28;20040;-55
2023/07/26 01:11:34;;;;;;;1.52;0.85;;;;;;;10.88;100.00;100601.38;5016848;28;20049;-55
2023/07/26 01:14:15;;;;;;;1.00;0.40;;;;;;;10.90;100.00;100602.81;5015899;28;20044;-57
2023/07/26 01:16:41;;;;;;;0.95;0.63;;;;;;;10.69;100.00;100600.97;5016072;28;20072;-54
2023/07/26 01:19:07;;;;;;;1.95;1.10;;;;;;;10.58;100.00;100598.81;5018944;28;20140;-57
2023/07/26 01:21:33;;;;;;;1.20;1.10;;;;;;;10.67;100.00;100599.53;5016369;28;20127;-56
2023/07/26 01:23:58;;;;;;;0.70;0.55;;;;;;;10.73;100.00;100595.31;5018984;28;20503;-56
2023/07/26 01:26:24;;;;;;;1.20;0.73;;;;;;;10.77;100.00;100593.91;5019404;28;20033;-54
2023/07/26 01:28:49;;;;;;;0.82;0.60;;;;;;;10.74;100.00;100587.16;5014061;28;20041;-55
2023/07/26 01:31:18;;;;;;;1.98;0.95;;;;;;;10.70;100.00;100583.25;5011649;28;20060;-56
2023/07/26 01:33:45;;;;;;;1.40;0.80;;;;;;;10.64;100.00;100582.16;5012135;28;20038;-57
2023/07/26 01:36:11;;;;;;;1.73;0.57;;;;;;;10.48;100.00;100577.13;5015014;28;20636;-53
2023/07/26 01:38:38;;;;;;;2.53;0.88;;;;;;;10.38;100.00;100584.56;5013028;28;20033;-54
2023/07/26 01:41:04;;;;;;;4.63;0.55;;;;;;;10.45;100.00;100582.78;5017846;28;20037;-58
2023/07/26 01:43:32;;;;;;;5.70;1.00;;;;;;;10.46;100.00;100581.78;5020692;28;20087;-56
2023/07/26 01:45:57;;;;;;;5.35;0.68;;;;;;;10.49;100.00;100584.06;5024092;28;20045;-55
2023/07/26 01:48:22;;;;;;;1.50;0.88;;;;;;;10.45;100.00;100577.47;5025022;28;20063;-55
2023/07/26 01:50:48;;;;;;;1.92;0.40;;;;;;;10.51;100.00;100583.84;5019185;28;20665;-52
2023/07/26 01:53:13;;;;;;;0.57;0.30;;;;;;;10.53;100.00;100587.13;5022672;28;20034;-54
2023/07/26 01:55:38;;;;;;;1.50;0.70;;;;;;;10.42;100.00;100588.44;5023406;28;20091;-55
2023/07/26 01:58:03;;;;;;;1.25;0.35;;;;;;;10.23;100.00;100580.06;5021620;28;20034;-55
2023/07/26 02:00:29;;;;;;;4.05;0.45;;;;;;;10.18;100.00;100577.16;5019296;28;20458;-54
2023/07/26 02:02:54;;;;;;;1.60;0.65;;;;;;;10.16;100.00;100579.16;5021614;28;20029;-52
2023/07/26 02:05:20;;;;;;;0.90;0.65;;;;;;;10.03;100.00;100581.66;5025752;28;20079;-54
2023/07/26 02:07:45;;;;;;;0.77;0.50;;;;;;;10.09;100.00;100583.53;5019377;28;20546;-53
2023/07/26 02:10:11;;;;;;;2.88;1.55;;;;;;;9.87;100.00;100595.09;5024743;28;20052;-51
2023/07/26 02:12:36;;;;;;;1.60;0.30;;;;;;;9.81;100.00;100586.88;5024109;28;20029;-49
2023/07/26 02:15:01;;;;;;;1.05;0.30;;;;;;;10.12;100.00;100579.72;5025266;28;20503;-53
2023/07/26 02:17:27;;;;;;;0.63;0.52;;;;;;;10.20;100.00;100579.63;5018226;28;20081;-56
2023/07/26 02:19:52;;;;;;;2.63;0.65;;;;;;;10.19;100.00;100583.25;5025080;28;20482;-54
2023/07/26 02:22:17;;;;;;;1.05;0.57;;;;;;;10.11;100.00;100586.84;5020780;28;20033;-54
2023/07/26 02:24:43;;;;;;;1.02;0.43;;;;;;;10.02;100.00;100580.03;5024406;28;20048;-52
2023/07/26 02:27:08;;;;;;;1.15;0.65;;;;;;;9.90;100.00;100574.34;5022965;28;20043;-54
2023/07/26 02:29:34;;;;;;;6.97;0.60;;;;;;;9.83;100.00;100570.78;5025268;28;20083;-55
2023/07/26 02:32:00;;;;;;;1.65;0.75;;;;;;;9.75;100.00;100566.41;5023034;28;20093;-56
2023/07/26 02:34:25;;;;;;;0.30;0.20;;;;;;;9.66;100.00;100564.06;5016684;28;20116;-54
2023/07/26 02:36:50;;;;;;;3.85;1.65;;;;;;;9.58;100.00;100567.63;5018383;28;20509;-53
2023/07/26 02:39:16;;;;;;;1.13;0.40;;;;;;;9.51;100.00;100569.34;5020924;28;20083;-54
2023/07/26 02:41:41;;;;;;;1.75;0.85;;;;;;;9.39;100.00;100561.03;5021721;28;20035;-54
2023/07/26 02:44:06;;;;;;;0.65;0.20;;;;;;;9.14;100.00;100574.50;5023051;28;20033;-55
2023/07/26 02:46:32;;;;;;;1.17;0.90;;;;;;;9.43;100.00;100564.97;5022744;28;20051;-53
2023/07/26 02:48:57;;;;;;;0.10;0.10;;;;;;;9.50;100.00;100562.38;5023354;28;20556;-50
2023/07/26 02:51:22;;;;;;;0.55;0.52;;;;;;;9.57;100.00;100564.13;5024019;28;20029;-52
2023/07/26 02:53:49;;;;;;;0.10;0.08;;;;;;;9.56;100.00;100556.38;5021526;28;20048;-55
2023/07/26 02:56:15;;;;;;;1.80;0.52;;;;;;;9.49;100.00;100571.34;5013949;28;20147;-56
2023/07/26 02:58:40;;;;;;;0.90;0.60;;;;;;;9.49;100.00;100566.06;5019309;28;20057;-53
2023/07/26 03:01:05;;;;;;;0.40;0.40;;;;;;;9.45;100.00;100562.97;5019195;28;20049;-54
2023/07/26 03:03:30;;;;;;;1.23;0.60;;;;;;;9.39;100.00;100559.19;5022597;28;20044;-53
2023/07/26 03:05:57;;;;;;;2.90;0.52;;;;;;;9.37;100.00;100563.00;5016435;28;20034;-53
2023/07/26 03:08:23;;;;;;;1.25;0.38;;;;;;;9.35;100.00;100571.16;5020043;28;20026;-55
2023/07/26 03:10:51;;;;;;;0.75;0.30;;;;;;;9.34;100.00;100573.97;5014510;28;20041;-55
2023/07/26 03:13:16;;;;;;;1.10;0.38;;;;;;;9.33;100.00;100575.81;5024132;28;20479;-52
2023/07/26 03:15:42;;;;;;;3.00;0.47;;;;;;;9.36;100.00;100564.03;5016400;28;20032;-55
2023/07/26 03:18:07;;;;;;;0.50;0.50;;;;;;;9.32;100.00;100574.16;5014636;28;20032;-54
2023/07/26 03:20:33;;;;;;;2.13;0.47;;;;;;;9.25;100.00;100575.88;5021799;28;20041;-54
2023/07/26 03:22:58;;;;;;;0.68;0.30;;;;;;;9.27;100.00;100576.53;5022741;28;20037;-54
2023/07/26 03:25:23;;;;;;;1.08;0.50;;;;;;;9.30;100.00;100570.88;5020822;28;20119;-52
2023/07/26 03:27:48;;;;;;;0.85;0.63;;;;;;;9.28;100.00;100580.81;5023716;28;20116;-55
2023/07/26 03:30:14;;;;;;;8.48;0.85;;;;;;;9.25;100.00;100577.72;5019662;28;20029;-51
2023/07/26 03:32:39;;;;;;;0.90;0.38;;;;;;;9.28;100.00;100578.16;5021802;28;20063;-54
2023/07/26 03:35:05;;;;;;;0.88;0.77;;;;;;;9.25;100.00;100580.34;5023208;28;20044;-54
2023/07/26 03:37:30;;;;;;;1.55;0.85;;;;;;;8.99;100.00;100580.75;5021165;28;20029;-54
2023/07/26 03:39:56;;;;;;;0.60;0.60;;;;;;;8.80;100.00;100589.97;5021640;28;20029;-53
2023/07/26 03:42:21;;;;;;;2.63;0.32;;;;;;;8.74;100.00;100587.03;5016987;28;20108;-51
2023/07/26 03:44:46;;;;;;;2.00;0.75;;;;;;;8.82;100.00;100591.44;5018434;28;20036;-53
2023/07/26 03:47:12;;;;;;;1.45;0.57;;;;;;;8.76;100.00;100586.88;5020864;28;20021;-55
2023/07/26 03:49:38;;;;;;;0.93;0.80;;;;;;;8.88;100.00;100587.25;5013314;28;20522;-54
2023/07/26 03:52:04;;;;;;;1.35;0.88;;;;;;;8.82;100.00;100578.22;5024608;28;20471;-54
2023/07/26 03:54:30;;;;;;;2.83;0.50;;;;;;;8.66;100.00;100583.63;5018937;28;20029;-55
2023/07/26 03:56:55;;;;;;;0.35;0.35;;;;;;;8.63;100.00;100582.16;5019524;28;20034;-49
2023/07/26 03:59:20;;;;;;;0.80;0.73;;;;;;;8.63;100.00;100587.47;5020265;28;20474;-50
2023/07/26 04:01:46;;;;;;;2.83;0.52;;;;;;;8.64;100.00;100589.09;5023790;28;20271;-53
2023/07/26 04:04:11;;;;;;;1.60;0.82;;;;;;;8.65;100.00;100588.09;5021996;28;20037;-51
2023/07/26 04:06:36;;;;;;;0.20;0.10;;;;;;;8.69;100.00;100592.03;5017142;28;20037;-53
2023/07/26 04:09:02;;;;;;;2.13;0.63;;;;;;;8.71;100.00;100597.16;5022096;28;20044;-51
2023/07/26 04:11:27;;;;;;;0.63;0.13;;;;;;;8.69;100.00;100591.22;5018951;28;20048;-53
2023/07/26 04:13:53;;;;;;;0.40;0.20;;;;;;;8.66;100.00;100591.56;5020141;28;21483;-54
2023/07/26 04:16:19;;;;;;;0.38;0.30;;;;;;;8.68;100.00;100595.69;5025237;28;20586;-50
2023/07/26 04:18:45;;;;;;;2.55;0.47;;;;;;;8.66;100.00;100588.91;5017156;28;20029;-52
2023/07/26 04:21:16;;;;;;;1.45;0.50;;;;;;;8.62;100.00;100591.09;5023620;28;20493;-56
2023/07/26 04:23:42;;;;;;;0.60;0.32;;;;;;;8.54;100.00;100593.78;5019961;28;20363;-51
2023/07/26 04:26:07;;;;;;;0.50;0.50;;;;;;;8.58;100.00;100596.91;5014943;28;20095;-53
2023/07/26 04:28:33;;;;;;;1.98;1.05;;;;;;;8.51;100.00;100589.66;5024103;28;20502;-52
2023/07/26 04:30:58;;;;;;;1.08;0.30;;;;;;;8.45;100.00;100595.66;5020459;28;20037;-50
2023/07/26 04:33:23;;;;;;;0.30;0.20;;;;;;;8.41;100.00;100599.63;5024511;28;20033;-50
2023/07/26 04:35:51;;;;;;;0.98;0.50;;;;;;;8.43;100.00;100602.94;5021374;28;20053;-52
2023/07/26 04:38:17;;;;;;;0.77;0.20;;;;;;;8.45;100.00;100600.94;5022365;28;20033;-53
2023/07/26 04:40:46;;;;;;;1.65;0.32;;;;;;;8.50;100.00;100603.06;5021063;28;20030;-54
2023/07/26 04:43:11;;;;;;;1.75;0.32;;;;;;;8.54;100.00;100606.19;5014485;28;20044;-49
2023/07/26 04:45:36;;;;;;;0.77;0.20;;;;;;;8.64;100.00;100609.41;5021489;28;20517;-52
2023/07/26 04:48:02;;;;;;;3.53;1.20;;;;;;;8.70;100.00;100606.91;5013770;28;20056;-50
2023/07/26 04:50:27;;;;;;;0.32;0.32;;;;;;;8.69;100.00;100618.47;5020408;28;20530;-51
2023/07/26 04:52:53;;;;;;;0.40;0.28;;;;;;;8.61;100.00;100617.69;5021913;28;20048;-54
2023/07/26 04:55:18;;;;;;;1.17;0.28;;;;;;;8.64;100.00;100620.00;5021782;28;20033;-51
2023/07/26 04:57:43;;;;;;;3.13;0.30;;;;;;;8.64;100.00;100622.63;5021709;28;20038;-53
2023/07/26 05:00:09;;;;;;;1.38;0.47;;;;;;;8.62;100.00;100629.91;5016043;28;20083;-53
2023/07/26 05:02:35;;;;;;;0.57;0.40;;;;;;;8.61;100.00;100618.53;5019582;28;20057;-52
2023/07/26 05:05:01;;;;;;;2.88;0.32;;;;;;;8.67;100.00;100625.78;5018076;28;20033;-54
2023/07/26 05:07:27;;;;;;;0.35;0.28;;;;;;;8.72;100.00;100633.16;5022371;28;20025;-51
2023/07/26 05:09:52;;;;;;;1.33;0.52;;;;;;;8.78;100.00;100629.81;5020668;28;20552;-52
2023/07/26 05:12:17;;;;;;;0.73;0.35;;;;;;;8.85;100.00;100632.56;5023832;28;20119;-49
2023/07/26 05:14:44;;;;;;;1.13;1.02;;;;;;;8.84;100.00;100626.47;5020250;28;20445;-53
2023/07/26 05:17:09;;;;;;;0.55;0.30;;;;;;;8.84;100.00;100618.53;5019347;28;20539;-53
2023/07/26 05:19:35;;;;;;;0.47;0.28;;;;;;;8.83;100.00;100622.19;5010975;28;20591;-54
2023/07/26 05:22:00;;;;;;;0.32;0.20;;;;;;;8.84;100.00;100629.09;5020874;28;20040;-53
2023/07/26 05:24:25;;;;;;;1.17;0.25;;;;;;;8.88;100.00;100622.47;5022292;28;20474;-53
2023/07/26 05:26:51;;;;;;;0.90;0.32;;;;;;;8.93;100.00;100614.84;5024458;28;20033;-52
2023/07/26 05:29:16;;;;;;;0.68;0.45;;;;;;;8.95;100.00;100618.13;5018387;28;20398;-55
2023/07/26 05:31:41;;;;;;;3.63;0.70;;;;;;;8.97;100.00;100622.41;5022342;28;20037;-57
2023/07/26 05:34:07;;;;;;;0.70;0.10;;;;;;;9.04;100.00;100628.66;5015208;28;20026;-59
2023/07/26 05:36:32;;;;;;;1.30;0.30;;;;;;;9.08;100.00;100637.88;5018508;28;20067;-55
2023/07/26 05:38:58;;;;;;;3.40;0.90;;;;;;;9.14;100.00;100634.53;5019423;28;20380;-55
2023/07/26 05:41:26;;;;;;;1.85;0.80;;;;;;;9.19;100.00;100637.47;5012873;28;20033;-57
2023/07/26 05:43:52;;;;;;;0.55;0.30;;;;;;;9.23;100.00;100641.38;5019588;28;20502;-56
2023/07/26 05:46:17;;;;;;;2.92;0.73;;;;;;;9.29;100.00;100634.53;5018040;28;20059;-57
2023/07/26 05:48:43;;;;;;;0.93;0.20;;;;;;;9.34;100.00;100632.19;5015640;28;20034;-56
2023/07/26 05:51:08;;;;;;;2.28;0.68;;;;;;;9.42;100.00;100629.47;5021813;28;20571;-54
2023/07/26 05:53:33;;;;;;;2.17;0.70;;;;;;;9.51;100.00;100625.75;5016971;28;20033;-55
2023/07/26 05:55:59;;;;;;;2.63;1.40;;;;;;;9.57;100.00;100632.13;5015386;28;20042;-56
2023/07/26 05:58:24;;;;;;;0.63;0.63;;;;;;;9.69;100.00;100630.69;5018476;28;20040;-56
2023/07/26 06:00:50;;;;;;;1.20;0.47;;;;;;;9.85;100.00;100624.41;5017952;28;20457;-56
2023/07/26 06:03:15;;;;;;;4.25;0.77;;;;;;;9.95;100.00;100626.78;5015082;28;20644;-58
2023/07/26 06:05:40;;;;;;;0.45;0.45;;;;;;;10.04;100.00;100612.41;5021133;28;20432;-56
2023/07/26 06:08:06;;;;;;;0.90;0.70;;;;;;;10.09;100.00;100617.16;5020307;28;20562;-54
2023/07/26 06:10:31;;;;;;;3.00;0.65;;;;;;;10.19;100.00;100617.72;5020807;28;20152;-56
2023/07/26 06:12:56;;;;;;;0.95;0.85;;;;;;;10.31;100.00;100618.09;5019326;28;20523;-55
2023/07/26 06:15:22;;;;;;;1.17;0.50;;;;;;;10.43;100.00;100617.44;5019602;28;20033;-56
2023/07/26 06:17:47;;;;;;;1.30;0.45;;;;;;;10.53;100.00;100621.59;5017430;28;20148;-56
2023/07/26 06:20:12;;;;;;;1.33;0.60;;;;;;;10.66;100.00;100617.28;5017950;28;20512;-57
2023/07/26 06:22:38;;;;;;;5.07;0.90;;;;;;;10.76;100.00;100619.59;5021822;28;20140;-55
2023/07/26 06:25:03;;;;;;;1.67;0.65;;;;;;;10.85;100.00;100630.94;5021222;28;20122;-53
2023/07/26 06:27:29;;;;;;;3.50;1.30;;;;;;;11.08;100.00;100623.59;5019904;28;20057;-51
2023/07/26 06:29:55;;;;;;;1.35;0.82;;;;;;;11.30;100.00;100624.38;5022879;28;20038;-52
2023/07/26 06:32:20;;;;;;;4.18;1.17;;;;;;;11.48;100.00;100617.78;5023194;28;20041;-54
2023/07/26 06:34:46;;;;;;;3.15;0.80;;;;;;;11.70;100.00;100621.19;5021220;28;20472;-57
2023/07/26 06:37:11;;;;;;;1.08;0.90;;;;;;;11.83;100.00;100623.13;5022727;28;20045;-54
2023/07/26 06:39:37;;;;;;;1.58;0.77;;;;;;;11.86;100.00;100612.94;5023501;28;20486;-52
2023/07/26 06:42:02;;;;;;;0.90;0.70;;;;;;;11.99;100.00;100620.97;5023416;28;20037;-53
2023/07/26 06:44:27;;;;;;;0.82;0.77;;;;;;;12.09;100.00;100615.31;5022962;28;20045;-53
2023/07/26 06:46:53;;;;;;;3.10;0.77;;;;;;;12.16;100.00;100607.38;5021416;28;20033;-58
2023/07/26 06:49:19;;;;;;;3.15;1.60;;;;;;;12.28;100.00;100618.25;5024658;28;20069;-55
2023/07/26 06:51:44;;;;;;;2.92;1.48;;;;;;;12.41;100.00;100621.75;5023234;28;20036;-58
2023/07/26 06:54:09;;;;;;;2.75;1.42;;;;;;;12.54;100.00;100618.31;5024639;28;20064;-53
2023/07/26 06:56:35;;;;;;;2.10;0.95;;;;;;;12.68;100.00;100615.72;5020825;28;20060;-55
2023/07/26 06:59:01;;;;;;;2.85;1.48;;;;;;;12.81;100.00;100613.91;5024424;28;20144;-51
2023/07/26 07:01:26;;;;;;;4.90;1.55;;;;;;;13.01;100.00;100608.59;5017064;28;20037;-51
2023/07/26 07:03:52;;;;;;;3.30;1.33;;;;;;;13.22;100.00;100604.09;5022869;28;20041;-54
2023/07/26 07:06:17;;;;;;;1.58;1.40;;;;;;;13.42;100.00;100596.13;5019425;28;20509;-55
2023/07/26 07:08:42;;;;;;;3.10;1.50;;;;;;;13.65;100.00;100595.66;5020545;28;20031;-56
2023/07/26 07:11:08;;;;;;;4.07;1.58;;;;;;;13.93;100.00;100600.72;5023838;28;20534;-55
2023/07/26 07:13:35;;;;;;;2.75;1.48;;;;;;;14.18;100.00;100596.31;5014841;28;20565;-56
2023/07/26 07:16:03;;;;;;;0.98;0.80;;;;;;;14.43;100.00;100600.94;5017728;28;20483;-59
2023/07/26 07:18:29;;;;;;;2.53;1.13;;;;;;;14.68;100.00;100594.88;5017439;28;20037;-58
2023/07/26 07:20:56;;;;;;;4.22;1.65;;;;;;;14.84;100.00;100591.66;5017698;28;20026;-55
2023/07/26 07:23:21;;;;;;;2.65;1.10;;;;;;;14.97;100.00;100588.91;5017086;28;20513;-55
2023/07/26 07:25:47;;;;;;;1.42;0.75;;;;;;;15.17;100.00;100593.28;5020770;28;20041;-55
2023/07/26 07:28:13;;;;;;;2.25;0.95;;;;;;;15.32;100.00;100592.94;5019168;28;20038;-59
2023/07/26 07:30:38;;;;;;;1.52;0.95;;;;;;;15.45;100.00;100596.28;5023108;28;20041;-58
2023/07/26 07:33:04;;;;;;;1.33;0.65;;;;;;;15.73;100.00;100578.19;5012211;28;20033;-57
2023/07/26 07:35:29;;;;;;;2.78;1.75;;;;;;;15.84;100.00;100580.91;5017709;28;20515;-54
2023/07/26 07:37:54;;;;;;;3.13;1.35;;;;;;;15.89;100.00;100580.25;5022233;28;20107;-57
2023/07/26 07:40:20;;;;;;;2.72;1.13;;;;;;;16.26;100.00;100580.19;5020291;28;20036;-53
2023/07/26 07:42:45;;;;;;;2.15;1.27;;;;;;;16.34;100.00;100569.19;5021768;28;20033;-58
2023/07/26 07:45:10;;;;;;;2.70;1.60;;;;;;;16.38;100.00;100581.06;5018684;28;20077;-56
2023/07/26 07:47:36;;;;;;;2.38;1.02;;;;;;;16.88;100.00;100582.63;5022921;28;20034;-61
2023/07/26 07:50:01;;;;;;;1.48;1.30;;;;;;;17.05;100.00;100572.88;5022651;28;20025;-59
2023/07/26 07:52:26;;;;;;;2.85;1.58;;;;;;;17.13;100.00;100583.25;5021048;28;20498;-60
2023/07/26 07:54:52;;;;;;;1.42;1.02;;;;;;;17.34;100.00;100571.16;5016836;28;20025;-59
2023/07/26 07:57:17;;;;;;;2.10;0.70;;;;;;;17.57;100.00;100567.63;5020789;28;20026;-58
2023/07/26 07:59:43;;;;;;;1.15;1.08;;;;;;;17.79;100.00;100572.41;5022331;28;20029;-55
2023/07/26 08:02:08;;;;;;;6.53;0.80;;;;;;;17.97;100.00;100556.19;5018909;28;20077;-52
2023/07/26 08:04:37;;;;;;;0.98;0.75;;;;;;;18.03;100.00;100552.53;5022793;28;20161;-61
2023/07/26 08:07:02;;;;;;;2.35;0.85;;;;;;;18.19;100.00;100555.50;5022350;28;20395;-58
2023/07/26 08:09:28;;;;;;;2.78;0.80;;;;;;;18.35;100.00;100554.72;5014795;28;20053;-64
2023/07/26 08:11:53;;;;;;;0.98;0.57;;;;;;;18.42;100.00;100546.53;5020076;28;20029;-63
2023/07/26 08:14:18;;;;;;;2.78;1.15;;;;;;;18.44;100.00;100550.63;5011728;28;20033;-62
2023/07/26 08:16:44;;;;;;;1.15;1.02;;;;;;;18.53;100.00;100551.88;5023854;28;20390;-62
2023/07/26 08:19:09;;;;;;;2.08;0.95;;;;;;;18.70;100.00;100553.75;5021622;28;20353;-64
2023/07/26 08:21:34;;;;;;;3.10;1.00;;;;;;;18.85;100.00;100543.28;5023028;28;20593;-63
2023/07/26 08:24:00;;;;;;;1.23;1.15;;;;;;;19.08;100.00;100546.88;5021650;28;20032;-61
2023/07/26 08:26:25;;;;;;;0.98;0.90;;;;;;;19.28;100.00;100547.13;5021161;28;20040;-54
2023/07/26 08:28:50;;;;;;;1.80;1.25;;;;;;;19.38;100.00;100549.97;5022001;28;20037;-62
2023/07/26 08:31:16;;;;;;;1.65;1.55;;;;;;;19.44;100.00;100540.13;5016924;28;20185;-53
2023/07/26 08:33:41;;;;;;;1.75;0.57;;;;;;;19.53;100.00;100546.69;5023854;28;20037;-63
2023/07/26 08:36:06;;;;;;;2.22;0.88;;;;;;;19.44;100.00;100544.66;5022034;28;20033;-63
2023/07/26 08:38:33;;;;;;;1.02;0.70;;;;;;;19.65;100.00;100549.28;5017064;28;20041;-58
2023/07/26 08:40:58;;;;;;;3.17;1.25;;;;;;;19.91;100.00;100539.66;5017399;28;20034;-58
2023/07/26 08:43:29;;;;;;;5.80;1.05;;;;;;;20.09;100.00;100546.59;5021499;28;20430;-63
2023/07/26 08:45:55;;;;;;;1.73;0.88;;;;;;;20.14;100.00;100533.19;5021957;28;20044;-63
2023/07/26 08:48:21;;;;;;;1.60;1.35;;;;;;;20.37;100.00;100542.84;5020416;28;20064;-47
2023/07/26 08:50:47;;;;;;;2.67;0.98;;;;;;;20.53;100.00;100546.50;5017701;28;20095;-63
2023/07/26 08:53:13;;;;;;;2.00;1.10;;;;;;;20.39;100.00;100550.66;5015054;28;20435;-64
2023/07/26 08:55:39;;;;;;;2.80;1.17;;;;;;;20.34;100.00;100542.53;5015356;28;20029;-61
2023/07/26 08:58:05;;;;;;;1.35;1.02;;;;;;;20.62;100.00;100536.09;5019760;28;20052;-53
2023/07/26 09:00:30;;;;;;;1.75;1.35;;;;;;;20.90;100.00;100538.47;5019865;28;20046;-64
2023/07/26 09:02:59;;;;;;;2.53;0.98;;;;;;;21.06;100.00;100534.00;5020114;28;20096;-61
2023/07/26 09:05:25;;;;;;;3.55;0.90;;;;;;;21.37;100.00;100528.00;5018006;28;20111;-57
2023/07/26 09:07:51;;;;;;;2.58;0.88;;;;;;;21.64;100.00;100527.91;5018035;28;20021;-62
2023/07/26 09:10:28;;;;;;;1.13;0.70;;;;;;;21.54;100.00;100529.47;5024285;28;20033;-63
2023/07/26 09:13:11;;;;;;;0.77;0.63;;;;;;;21.45;100.00;100530.22;5016474;28;20494;-61
2023/07/26 09:15:38;;;;;;;3.28;0.93;;;;;;;21.45;100.00;100528.34;5008364;28;20152;-53
2023/07/26 09:18:04;;;;;;;2.08;1.05;;;;;;;21.59;100.00;100530.56;5020914;28;20191;-54
2023/07/26 09:20:31;;;;;;;2.42;1.30;;;;;;;21.58;100.00;100528.94;5021015;28;20196;-60
2023/07/26 09:23:05;;;;;;;2.22;1.65;;;;;;;21.26;97.23;100533.31;5014295;28;20033;-63
2023/07/26 09:25:32;;;;;;;1.00;0.70;;;;;;;21.34;97.61;100527.44;5021486;28;20083;-55
2023/07/26 09:28:01;;;;;;;7.88;1.13;;;;;;;21.46;99.98;100526.47;5013854;28;20482;-62
2023/07/26 09:30:26;;;;;;;0.98;0.88;;;;;;;;;;5021918;28;20109;-56
2023/07/26 09:32:52;;;;;;;1.85;1.02;;;;;;;21.65;98.91;100534.91;5017297;28;20136;-61
2023/07/26 09:35:17;;;;;;;2.03;1.75;;;;;;;21.49;93.95;100524.03;5021337;28;20529;-63
2023/07/26 09:37:43;;;;;;;1.80;1.00;;;;;;;21.56;90.36;100527.31;5018415;28;20116;-60
2023/07/26 09:40:09;;;;;;;2.58;1.13;;;;;;;21.92;91.64;100518.56;5019299;28;20033;-54
2023/07/26 09:42:43;;;;;;;1.30;1.17;;;;;;;22.35;90.26;100519.19;5022879;28;20049;-50
2023/07/26 09:45:18;;;;;;;1.88;1.15;;;;;;;22.71;89.51;100519.22;5031248;28;20041;-49
2023/07/26 09:47:44;;;;;;;2.47;1.02;;;;;;;22.60;88.72;100519.22;5019181;28;20343;-63
2023/07/26 09:50:27;;;;;;;0.73;0.55;;;;;;;22.38;87.37;100511.38;5018864;28;20037;-59
2023/07/26 09:52:56;;;;;;;2.10;0.93;;;;;;;22.34;90.29;100521.09;5011272;28;20060;-62
2023/07/26 09:55:27;;;;;;;0.57;0.57;;;;;;;22.14;79.64;100513.72;5019032;28;20026;-62
2023/07/26 09:57:55;;;;;;;3.85;0.95;;;;;;;22.23;83.67;100511.38;5019741;28;20109;-61
2023/07/26 10:00:23;;;;;;;2.05;1.75;;;;;;;22.41;80.21;100500.03;5017078;28;20127;-62
2023/07/26 10:02:57;;;;;;;4.40;1.90;;;;;;;22.64;78.54;100503.28;5018153;28;20041;-49
2023/07/26 10:05:25;;;;;;;1.58;1.30;;;;;;;22.86;82.35;100492.19;5022411;28;20447;-60
2023/07/26 10:07:51;;;;;;;1.80;0.85;;;;;;;23.07;80.71;100503.78;5014098;28;20509;-61
2023/07/26 10:10:18;;;;;;;1.40;1.13;;;;;;;23.14;79.45;100503.53;5022463;28;20033;-63
2023/07/26 10:12:45;;;;;;;1.73;1.10;;;;;;;23.06;77.00;100503.00;5015814;28;20033;-63
2023/07/26 10:15:12;;;;;;;1.38;1.08;;;;;;;23.15;77.58;100503.22;5018686;28;20030;-60
2023/07/26 10:17:40;;;;;;;1.88;1.70;;;;;;;23.24;78.92;100496.19;5024270;28;20045;-63
2023/07/26 10:20:09;;;;;;;2.40;1.35;;;;;;;23.36;78.10;100495.06;5021290;28;20040;-63
2023/07/26 10:22:35;;;;;;;1.58;1.38;;;;;;;23.57;79.65;100502.03;5023540;28;20056;-63
2023/07/26 10:25:01;;;;;;;1.30;1.13;;;;;;;23.68;78.58;100503.59;5018440;28;20445;-62
2023/07/26 10:27:27;;;;;;;2.13;0.82;;;;;;;23.40;77.79;100498.84;5019234;28;20104;-63
2023/07/26 10:29:53;;;;;;;1.33;1.23;;;;;;;23.63;78.16;100494.69;5022425;28;20052;-63
2023/07/26 10:32:18;;;;;;;1.00;0.70;;;;;;;23.95;76.79;100489.66;5025829;28;20683;-64
2023/07/26 10:34:43;;;;;;;2.83;1.40;;;;;;;23.88;75.44;100472.94;5036863;28;20025;-61
2023/07/26 10:37:18;;;;;;;1.77;1.35;;;;;;;23.73;75.37;100481.94;5022448;28;20041;-57
2023/07/26 10:39:44;;;;;;;3.90;1.85;;;;;;;23.90;77.82;100476.16;5014642;28;20035;-54
2023/07/26 10:42:25;;;;;;;0.90;0.80;;;;;;;24.00;75.22;100469.88;5022309;28;20442;-60
2023/07/26 10:44:57;;;;;;;2.58;1.60;;;;;;;24.40;77.02;100483.44;5017140;28;20096;-59
2023/07/26 10:47:22;;;;;;;3.03;1.67;;;;;;;24.78;76.70;100474.44;5022489;28;20048;-59
2023/07/26 10:49:48;;;;;;;1.52;1.10;;;;;;;24.60;75.38;100480.56;5021150;28;20030;-56
2023/07/26 10:52:14;;;;;;;1.50;1.40;;;;;;;24.51;73.39;100480.38;5020927;28;20483;-62
2023/07/26 10:54:48;;;;;;;2.30;1.42;;;;;;;24.55;71.64;100478.72;5017431;28;20040;-61
2023/07/26 10:57:26;;;;;;;1.83;1.55;;;;;;;24.56;72.11;100485.75;5019645;28;20061;-62
2023/07/26 11:00:10;;;;;;;3.58;1.23;;;;;;;24.57;66.25;100478.41;5020197;28;20045;-64
2023/07/26 11:02:36;;;;;;;2.67;1.45;;;;;;;24.72;69.80;100480.19;5017660;28;20522;-63
2023/07/26 11:05:03;;;;;;;1.42;1.33;;;;;;;24.95;68.99;100475.91;5017297;28;20040;-62
2023/07/26 11:07:50;;;;;;;2.58;1.80;;;;;;;25.26;66.74;100481.03;5021931;28;20038;-54
2023/07/26 11:10:28;;;;;;;2.25;2.05;;;;;;;25.54;67.86;100479.31;5018743;28;20101;-54
2023/07/26 11:13:10;;;;;;;1.98;0.95;;;;;;;25.60;62.65;100483.59;5016629;28;20053;-63
2023/07/26 11:15:41;;;;;;;1.58;1.10;;;;;;;25.19;61.32;100482.16;5020037;28;20491;-64
2023/07/26 11:18:07;;;;;;;0.93;0.88;;;;;;;25.08;62.28;100480.63;5020539;28;20037;-59